Flight Track Log - Related Links

Times and Time Zones

All times are in EST time to prevent confusion due to time zone crossing. See the QJE1930 flight status page for this flight to view local times or setup timezone preferences in your user account.

Time Position Orientation Groundspeed Altitude Reporting Facility
EST Latitude Longitude Course Direction KTS MPH feet Rate Location/Type
Tue 02:47:37 AM -31.9331 115.9671 194° South 84 97  Level FlightAware
Tue 02:47:57 AM -31.9442 115.9639 194° South 84 97 300 1,660 Climbing FlightAware
Tue 02:49:11 AM -32.0033 115.9473 193° South 198 228 2,600 1,841 Climbing FlightAware
Tue 02:49:25 AM -32.0157 115.9506 167° South 208 239 3,000 1,784 Climbing FlightAware
Tue 02:49:48 AM -32.0342 115.9685 141° Southeast 208 239 3,700 1,905 Climbing FlightAware
Tue 02:50:28 AM -32.0485 116.0199 108° East 259 298 5,000 1,962 Climbing FlightAware
Tue 02:51:32 AM -32.0683 116.1099 108° East 263 303 7,100 2,225 Climbing Aus
Tue 02:51:57 AM -32.0769 116.1461 108° East 300 345 8,300 2,491 Climbing FlightAware
Tue 02:52:25 AM -32.0862 116.1950 103° East 308 354 9,300 2,298 Climbing FlightAware
Tue 02:52:44 AM -32.0800 116.2234 76° East 294 338 10,100 2,270 Climbing FlightAware
Tue 02:53:02 AM -32.0649 116.2457 51° Northeast 295 339 10,700 1,472 Climbing FlightAware
Tue 02:53:37 AM -32.0301 116.2896 51° Northeast 305 351 11,400 1,565 Climbing Aus
Tue 02:53:48 AM -32.0187 116.3040 51° Northeast 332 382 11,900 1,469 Climbing FlightAware
Tue 02:54:26 AM -31.9763 116.3571 47° Northeast 363 418 12,600 1,425 Climbing FlightAware
Tue 02:55:08 AM -31.9253 116.4204 46° Northeast 376 433 13,800 2,047 Climbing FlightAware
Tue 02:55:51 AM -31.8719 116.4864 46° Northeast 381 438 15,500 2,268 Climbing FlightAware
Tue 02:56:30 AM -31.8257 116.5440 47° Northeast 386 444 16,900 1,950 Climbing FlightAware
Tue 02:57:11 AM -31.7733 116.6094 47° Northeast 400 460 18,100 1,674 Climbing FlightAware
Tue 02:57:56 AM -31.7157 116.6804 47° Northeast 392 451 19,300 1,636 Climbing Aus
Tue 02:58:06 AM -31.7036 116.6955 47° Northeast 401 461 19,600 1,714 Climbing FlightAware
Tue 02:58:45 AM -31.6525 116.7587 46° Northeast 408 470 20,700 1,308 Climbing FlightAware
Tue 02:59:24 AM -31.5996 116.8233 46° Northeast 423 487 21,300 1,164 Climbing FlightAware
Tue 02:59:52 AM -31.5579 116.8657 41° Northeast 429 494 22,000 1,527 Climbing FlightAware
Tue 03:00:19 AM -31.5108 116.8957 28° Northeast 425 489 22,700 1,455 Climbing FlightAware
Tue 03:00:58 AM -31.4419 116.9249 20° North 426 490 23,600 1,443 Climbing FlightAware
Tue 03:01:38 AM -31.3636 116.9571 19° North 424 488 24,600 1,159 Climbing FlightAware
Tue 03:02:26 AM -31.2718 116.9949 19° North 434 499 25,300 1,245 Climbing Aus
Tue 03:02:31 AM -31.2622 116.9987 19° North 431 496 25,700 1,532 Climbing FlightAware
Tue 03:03:13 AM -31.1829 117.0315 20° North 442 509 26,500 1,098 Climbing FlightAware
Tue 03:03:53 AM -31.1042 117.0635 19° North 448 516 27,200 846 Climbing FlightAware
Tue 03:04:31 AM -31.0296 117.0947 19° North 447 514 27,600 1,154 Climbing Aus
Tue 03:04:45 AM -31.0017 117.1052 19° North 443 510 28,200 1,714 Climbing FlightAware
Tue 03:05:27 AM -30.9212 117.1380 19° North 445 512 29,200 1,333 Climbing FlightAware
Tue 03:06:06 AM -30.8455 117.1692 19° North 441 507 30,000 1,183 Climbing FlightAware
Tue 03:06:38 AM -30.7844 117.1970 21° North 437 503 30,600 1,040 Climbing FlightAware
Tue 03:07:21 AM -30.7017 117.2359 22° Northeast 437 503 31,300 1,229 Climbing FlightAware
Tue 03:08:01 AM -30.6266 117.2707 22° Northeast 434 499 32,300 1,291 Climbing FlightAware
Tue 03:08:40 AM -30.5533 117.3042 21° North 431 496 33,000 568 Climbing FlightAware
Tue 03:09:15 AM -30.4880 117.3337 21° North 429 494 33,000  Level FlightAware
Tue 03:09:55 AM -30.4148 117.3672 22° Northeast 421 484 33,000  Level FlightAware
Tue 03:10:35 AM -30.3392 117.3855 12° North 416 479 33,000  Level FlightAware
Tue 03:10:54 AM -30.3025 117.3792 352° North 412 474 33,000  Level FlightAware
Tue 03:11:28 AM -30.2460 117.3548 340° North 411 473 33,000  Level FlightAware
Tue 03:12:07 AM -30.1726 117.3210 338° Northwest 409 471 33,000  Level FlightAware
Tue 03:12:28 AM -30.1414 117.2974 327° Northwest 401 461 33,000  Level FlightAware
Tue 03:13:07 AM -30.0842 117.2399 319° Northwest 408 470 33,000  Level FlightAware
Tue 03:13:43 AM -30.0332 117.1905 320° Northwest 409 471 33,000  Level FlightAware
Tue 03:14:02 AM -29.9996 117.1714 334° Northwest 412 474 33,000  Level FlightAware
Tue 03:14:22 AM -29.9630 117.1617 347° North 409 471 33,000  Level FlightAware
Tue 03:14:42 AM -29.9237 117.1623 North 424 488 33,000  Level FlightAware
Tue 03:15:02 AM -29.8864 117.1730 14° North 425 489 33,000  Level FlightAware
Tue 03:15:56 AM -29.7893 117.2318 28° Northeast 440 506 33,000 -135 Level FlightAware
Tue 03:16:31 AM -29.7295 117.2716 28° Northeast 435 501 32,800  Descending Aus
Tue 03:16:37 AM -29.7194 117.2808 28° Northeast 436 502 33,000 267 Climbing FlightAware
Tue 03:17:16 AM -29.6521 117.3284 32° Northeast 435 501 33,000  Level FlightAware
Tue 03:18:11 AM -29.5569 117.3958 32° Northeast 433 498 33,000  Level FlightAware
Tue 03:18:51 AM -29.4883 117.4414 30° Northeast 433 498 33,000  Level FlightAware
Tue 03:19:29 AM -29.4201 117.4872 30° Northeast 431 496 33,000  Level FlightAware
Tue 03:20:24 AM -29.3266 117.5510 31° Northeast 431 496 33,000  Level FlightAware
Tue 03:21:04 AM -29.2580 117.5985 31° Northeast 435 501 33,000  Level FlightAware
Tue 03:21:44 AM -29.1898 117.6442 30° Northeast 416 479 33,000  Level FlightAware
Tue 03:22:38 AM -29.0996 117.7056 31° Northeast 418 481 33,000  Level FlightAware
Tue 03:23:19 AM -29.0311 117.7519 31° Northeast 419 482 33,000  Level FlightAware
Tue 03:23:58 AM -28.9641 117.7972 31° Northeast 432 497 33,000  Level FlightAware
Tue 03:24:28 AM -28.9122 117.8319 30° Northeast 429 494 33,000 -250 Level FlightAware
Tue 03:25:10 AM -28.8405 117.8760 30° Northeast 426 490 32,700 -234 Descending Aus
Tue 03:25:45 AM -28.7813 117.9166 31° Northeast 427 491 32,700  Level Aus
Tue 03:26:30 AM -28.7051 117.9687 31° Northeast 427 491 32,700  Level Aus
Tue 03:26:59 AM -28.6536 118.0019 30° Northeast 426 490 32,700  Level Aus
Tue 03:27:30 AM -28.6030 118.0371 31° Northeast 427 491 32,700  Level Aus
Tue 03:28:19 AM -28.5182 118.0941 31° Northeast 427 491 32,700  Level Aus
Tue 03:29:24 AM -28.4071 118.1694 31° Northeast 429 494 32,700  Level Aus
Tue 03:29:54 AM -28.3558 118.2032 30° Northeast 428 493 32,700  Level Aus
Tue 03:30:14 AM -28.3222 118.2275 32° Northeast 429 494 32,700  Level Aus
Tue 03:30:29 AM -28.2969 118.2445 31° Northeast 429 494 32,700  Level Aus
Tue 03:47:47 AM -26.4147 119.1210 201° Southwest 436 502 32,700  Level Aus
Tue 03:48:00 AM -27.7385 118.5443 201° Southwest  Level FlightAware
Tue 03:48:17 AM -26.3586 119.1440 20° North 542 624 32,700  Level Aus
Tue 03:48:52 AM -26.2946 119.1725 22° Northeast 444 511 32,700  Level Aus
Tue 03:49:32 AM -26.2191 119.2070 22° Northeast 440 506 32,700  Level Aus
Tue 03:50:32 AM -26.1081 119.2501 19° North 489 563 32,700  Level Aus
Tue 03:51:07 AM -26.0406 119.2822 23° Northeast 462 532 32,700  Level Aus
Tue 03:51:37 AM -25.9839 119.3069 21° North 451 519 32,700  Level Aus
Tue 03:52:37 AM -25.8695 119.3554 21° North 454 522 32,700  Level Aus
Tue 03:53:26 AM -25.7748 119.3945 20° North 439 505 32,700  Level Aus
Tue 03:54:01 AM -25.7099 119.4194 19° North 430 495 32,700  Level Aus
Tue 03:55:16 AM -25.5668 119.4790 21° North 438 504 32,700  Level Aus
Tue 03:55:46 AM -25.5097 119.5031 21° North 438 504 32,700  Level Aus
Tue 03:56:21 AM -25.4433 119.5311 21° North 438 504 32,700  Level Aus
Tue 03:57:11 AM -25.3478 119.5710 21° North 438 504 32,700 -71 Level Aus
Tue 03:57:46 AM -25.2824 119.5972 20° North 432 497 32,600 -75 Descending Aus
Tue 03:58:31 AM -25.1951 119.6341 21° North 442 509 32,600  Level Aus
Tue 03:58:51 AM -25.1572 119.6493 20° North 441 507 32,600  Level Aus
Tue 03:59:26 AM -25.0906 119.6765 20° North 438 504 32,600  Level Aus
Tue 04:00:36 AM -24.9535 119.7340 21° North 451 519 32,600  Level Aus
Tue 04:01:01 AM -24.9054 119.7536 20° North 448 516 32,600  Level Aus
Tue 04:01:36 AM -24.8374 119.7820 21° North 447 514 32,600  Level Aus
Tue 04:02:11 AM -24.7692 119.8105 21° North 449 517 32,600  Level Aus
Tue 04:02:46 AM -24.7037 119.8366 20° North 439 505 32,600  Level Aus
Tue 04:03:50 AM -24.5769 119.8890 21° North 444 511 32,600  Level Aus
Tue 04:04:15 AM -24.5276 119.9092 20° North 448 516 32,600  Level Aus
Tue 04:05:15 AM -24.4117 119.9563 20° North 444 511 32,600  Level Aus
Tue 04:05:40 AM -24.3627 119.9764 20° North 446 513 32,600  Level Aus
Tue 04:06:10 AM -24.3024 120.0015 21° North 456 525 32,600  Level Aus
Tue 04:06:45 AM -24.2345 120.0289 20° North 450 518 32,600  Level Aus
Tue 04:07:35 AM -24.1355 120.0690 20° North 454 522 32,600  Level Aus
Tue 04:08:10 AM -24.0675 120.0966 20° North 449 517 32,600  Level Aus
Tue 04:09:05 AM -23.9588 120.1409 20° North 452 520 32,600  Level Aus
Tue 04:09:40 AM -23.8888 120.1692 20° North 456 525 32,600  Level Aus
Tue 04:10:55 AM -23.7400 120.2292 20° North 460 529 32,600  Level Aus
Tue 04:11:15 AM -23.7069 120.2438 22° Northeast 434 499 32,600  Level Aus
Tue 04:11:50 AM -23.6359 120.2724 20° North 438 504 32,600  Level Aus
Tue 04:12:34 AM -23.5451 120.3088 20° North 447 514 32,600  Level Aus
Tue 04:13:09 AM -23.4762 120.3367 20° North 450 518 32,600  Level Aus
Tue 04:13:45 AM -23.4028 120.3653 20° North 464 534 32,600  Level Aus
Tue 04:14:19 AM -23.3347 120.3935 21° North 456 525 32,600  Level Aus
Tue 04:15:09 AM -23.2316 120.4334 20° North 467 537 32,600  Level Aus
Tue 04:15:29 AM -23.1916 120.4499 21° North 466 536 32,600  Level Aus
Tue 04:16:14 AM -23.1026 120.4828 19° North 450 518 32,600  Level Aus
Tue 04:16:39 AM -23.0495 120.4787 356° North 435 501 32,600  Level Aus
Tue 04:17:39 AM -22.9299 120.4131 333° Northwest 478 550 32,600  Level Aus
Tue 04:17:54 AM -22.9042 120.3907 321° Northwest 477 549 32,600  Level Aus
Tue 04:18:34 AM -22.8373 120.3328 321° Northwest 457 526 32,600  Level Aus
Tue 04:19:09 AM -22.7771 120.2817 322° Northwest 456 525 32,600  Level Aus
Tue 04:19:44 AM -22.7170 120.2304 322° Northwest 456 525 32,600  Level Aus
Tue 04:21:09 AM -22.5677 120.1156 325° Northwest 443 510 32,600  Level Aus
Tue 04:21:24 AM -22.5354 120.1080 348° North 445 512 32,600  Level Aus
Tue 04:21:59 AM -22.4576 120.1093 North 475 547 32,600  Level Aus
Tue 04:22:39 AM -22.3747 120.1404 19° North 488 562 32,600  Level Aus
Tue 04:23:14 AM -22.3063 120.1693 21° North 465 535 32,600  Level Aus
Tue 04:24:04 AM -22.2054 120.2102 21° North 462 532 32,600  Level Aus
Tue 04:24:34 AM -22.1452 120.2348 21° North 461 531 32,600  Level Aus
Tue 04:25:29 AM -22.0341 120.2797 21° North 463 533 32,600  Level Aus
Tue 04:25:53 AM -21.9835 120.3000 20° North 463 533 32,600  Level Aus
Tue 04:26:18 AM -21.9325 120.3203 20° North 465 535 32,600  Level Aus
Tue 04:26:53 AM -21.8612 120.3490 20° North 466 536 32,600  Level Aus
Tue 04:27:38 AM -21.7689 120.3855 20° North 468 539 32,600  Level Aus
Tue 04:28:08 AM -21.7070 120.4096 20° North 469 540 32,600 -92 Level Aus
Tue 04:28:43 AM -21.6360 120.4384 21° North 467 537 32,500 -86 Descending Aus
Tue 04:29:18 AM -21.5650 120.4674 21° North 465 535 32,500  Level Aus
Tue 04:29:58 AM -21.4837 120.5000 20° North 464 534 32,500  Level Aus
Tue 04:30:43 AM -21.3939 120.5372 21° North 462 532 32,500  Level Aus
Tue 04:31:08 AM -21.3432 120.5572 20° North 462 532 32,500  Level Aus
Tue 04:31:43 AM -21.2720 120.5851 20° North 463 533 32,500  Level Aus
Tue 04:32:28 AM -21.1809 120.6210 20° North 462 532 32,500  Level Aus
Tue 04:33:03 AM -21.1101 120.6495 21° North 463 533 32,500  Level Aus
Tue 04:33:38 AM -21.0395 120.6784 21° North 463 533 32,500  Level Aus
Tue 04:34:23 AM -20.9478 120.7156 21° North 466 536 32,500  Level Aus
Tue 04:34:43 AM -20.9076 120.7323 21° North 466 536 32,500  Level Aus
Tue 04:36:00 AM -20.7759 120.8003 26° Northeast  Level Estimated
Tue 04:43:00 AM -20.0570 121.1691 26° Northeast  Level Estimated
Tue 04:43:36 AM -19.9058 121.3680 251° West 11,700  Level Aus
Tue 04:44:00 AM -19.9542 121.2215 26° Northeast  Level Estimated
Tue 04:44:23 AM -19.8142 121.4257 22° Northeast 11,700  Level Aus
Tue 04:46:00 AM -19.6425 121.5005 22° Northeast  Level Estimated
Tue 04:46:36 AM -19.5564 121.5875 21° North 11,700  Level Aus
Tue 04:48:00 AM -19.4062 121.6481 21° North  Level Estimated
Tue 04:49:00 AM -19.2988 121.6914 21° North  Level Estimated
Tue 04:49:01 AM -19.2769 121.7623 19° North 11,700  Level Aus
Tue 04:51:00 AM -19.0610 121.8389 19° North  Level Estimated
Tue 04:52:00 AM -18.9522 121.8774 19° North  Level Estimated
Tue 04:53:00 AM -18.8433 121.9159 19° North  Level Estimated
Tue 04:53:08 AM -18.8049 122.0559 11° North 11,700  Level Aus
Tue 04:55:00 AM -18.5946 122.0990 11° North  Level Estimated
Tue 04:56:00 AM -18.4819 122.1221 11° North  Level Estimated
Tue 04:56:07 AM -18.4375 122.2831 354° North  Level Aus
Tue 04:57:08 AM -18.3765 122.2762 354° North  Level Aus
Tue 04:59:00 AM -18.1632 122.2542 354° North  Level Estimated
Tue 04:59:07 AM -18.2533 122.2651 354° North 500  Level Aus
Tue 05:00:00 AM -18.0490 122.2424 354° North  Level Estimated
Tue 05:01:00 AM -18.0382 122.2418 354° North  Level Estimated
Tue 05:02:00 AM -17.9447 122.2317 354° North  Level Estimated
Tue 05:02:07 AM -18.0691 122.2472 360° North 500  Level Aus
Tue 05:02:07 AM -18.0691 122.2472 360° North 500  Level Aus
Tue 05:02:07 AM -18.0691 122.2472 353° North 500  Level Aus
Tue 05:04:00 AM -17.9447 122.2317 353° North  Level Estimated
Tue 05:05:00 AM -17.9447 122.2317 235° Southwest  Level Estimated
Tue 05:06:00 AM -17.9447 122.2317 235° Southwest  Level Estimated
Tue 05:07:00 AM -17.9447 122.2317 235° Southwest  Level Estimated
Tue 05:08:00 AM -17.9447 122.2317 235° Southwest  Level Estimated
Tue 05:09:00 AM -17.9447 122.2317 235° Southwest  Level Estimated
Tue 05:10:00 AM -17.9447 122.2317 235° Southwest  Level Estimated

Login

Don't have an account? Register now (free) for customized features, flight alerts, and more!